Time;durP1;ratioP1;P1;durP2;ratioP2;P2;SDS_P1;SDS_P2;PMS_P1;PMS_P2;Temp;Humidity;BMP_temperature;BMP_pressure;BME280_temperature;BME280_humidity;BME280_pressure;Samples;Min_cycle;Max_cycle;Signal;HPM_P1;HPM_P2
2022/04/27 00:00:34;;;;;;;8.20;3.60;;;9.40;64.80;;;;;;5119094;28;20032;-59
2022/04/27 00:03:04;;;;;;;4.30;3.28;;;9.40;64.90;;;;;;5118689;28;20028;-59
2022/04/27 00:05:31;;;;;;;8.38;3.97;;;9.40;65.10;;;;;;5120225;28;20028;-58
2022/04/27 00:07:57;;;;;;;4.25;3.50;;;9.40;64.90;;;;;;5115062;28;20081;-59
2022/04/27 00:10:23;;;;;;;4.35;3.42;;;9.40;65.00;;;;;;5114529;28;20041;-60
2022/04/27 00:12:49;;;;;;;5.45;4.25;;;9.40;65.10;;;;;;5110554;28;20035;-58
2022/04/27 00:15:15;;;;;;;5.20;4.22;;;9.40;65.10;;;;;;5116532;28;20092;-60
2022/04/27 00:17:41;;;;;;;5.53;4.40;;;9.40;65.20;;;;;;5117805;28;20052;-60
2022/04/27 00:20:08;;;;;;;6.53;4.80;;;9.40;65.20;;;;;;5124704;28;20035;-60
2022/04/27 00:22:36;;;;;;;5.00;4.18;;;9.40;65.30;;;;;;5115416;28;20039;-59
2022/04/27 00:25:04;;;;;;;5.20;4.20;;;9.40;65.20;;;;;;5111378;28;20029;-59
2022/04/27 00:27:30;;;;;;;3.70;3.35;;;9.40;65.10;;;;;;5111569;28;20023;-59
2022/04/27 00:29:57;;;;;;;5.63;3.90;;;9.40;65.10;;;;;;5108630;28;20039;-59
2022/04/27 00:32:23;;;;;;;4.28;3.42;;;9.40;65.10;;;;;;5118586;28;20024;-60
2022/04/27 00:34:49;;;;;;;7.88;3.83;;;9.40;65.10;;;;;;5119417;27;20270;-58
2022/04/27 00:37:15;;;;;;;5.25;3.70;;;9.40;65.20;;;;;;5120265;28;20062;-59
2022/04/27 00:39:41;;;;;;;5.80;3.90;;;9.30;65.20;;;;;;5123099;28;20088;-60
2022/04/27 00:42:21;;;;;;;4.80;3.72;;;9.30;65.20;;;;;;5108655;28;20048;-60
2022/04/27 00:44:48;;;;;;;3.88;3.22;;;9.30;65.60;;;;;;5122305;27;20020;-59
2022/04/27 00:47:16;;;;;;;5.03;4.22;;;9.30;65.20;;;;;;5119700;27;20027;-58
2022/04/27 00:49:52;;;;;;;4.68;3.60;;;9.30;65.30;;;;;;5129625;27;20105;-60
2022/04/27 00:52:18;;;;;;;5.18;4.15;;;9.30;65.40;;;;;;5128330;27;20036;-58
2022/04/27 00:54:47;;;;;;;5.45;3.92;;;9.30;65.50;;;;;;5127592;27;20064;-60
2022/04/27 00:57:13;;;;;;;5.90;4.28;;;9.30;65.80;;;;;;5135117;27;20016;-59
2022/04/27 00:59:39;;;;;;;5.85;4.03;;;9.30;65.80;;;;;;5125734;27;20016;-60
2022/04/27 01:02:05;;;;;;;7.28;4.25;;;9.30;65.80;;;;;;5125451;27;20011;-59
2022/04/27 01:04:36;;;;;;;5.80;3.97;;;9.30;65.90;;;;;;5133916;27;20058;-59
2022/04/27 01:07:02;;;;;;;4.15;3.75;;;9.30;66.00;;;;;;5126605;27;20024;-60
2022/04/27 01:09:29;;;;;;;6.85;3.58;;;9.30;65.80;;;;;;5121523;27;20525;-58
2022/04/27 01:11:56;;;;;;;4.60;3.60;;;9.30;65.90;;;;;;5129767;27;20023;-59
2022/04/27 01:14:22;;;;;;;4.22;3.55;;;9.30;65.80;;;;;;5118798;27;20091;-59
2022/04/27 01:16:57;;;;;;;7.18;4.18;;;9.30;65.90;;;;;;5122648;27;20035;-58
2022/04/27 01:19:26;;;;;;;5.90;4.07;;;9.30;66.60;;;;;;5119377;27;20045;-60
2022/04/27 01:21:54;;;;;;;5.88;3.83;;;9.40;66.10;;;;;;5124689;27;20023;-60
2022/04/27 01:24:21;;;;;;;3.78;3.28;;;9.30;66.10;;;;;;5118753;27;20025;-59
2022/04/27 01:26:51;;;;;;;4.00;3.55;;;9.30;66.00;;;;;;5116971;27;20032;-60
2022/04/27 01:29:18;;;;;;;4.25;3.85;;;9.30;66.00;;;;;;5128894;27;20557;-60
2022/04/27 01:31:44;;;;;;;5.22;3.90;;;9.30;66.00;;;;;;5108576;27;20048;-58
2022/04/27 01:34:10;;;;;;;3.72;3.38;;;9.60;66.10;;;;;;5125500;27;20039;-58
2022/04/27 01:36:36;;;;;;;4.70;3.88;;;9.30;66.00;;;;;;5122601;27;20023;-59
2022/04/27 01:39:01;;;;;;;5.20;3.95;;;9.30;66.00;;;;;;5125815;27;20051;-60
2022/04/27 01:41:27;;;;;;;6.32;3.83;;;9.30;66.10;;;;;;5117655;28;20019;-58
2022/04/27 01:43:53;;;;;;;4.97;3.75;;;9.30;66.10;;;;;;5122763;27;20036;-60
2022/04/27 01:46:18;;;;;;;5.55;3.58;;;9.30;66.20;;;;;;5125054;27;20015;-60
2022/04/27 01:48:44;;;;;;;5.38;3.65;;;9.30;66.20;;;;;;5126187;27;20039;-60
2022/04/27 01:51:11;;;;;;;4.40;4.00;;;9.30;66.10;;;;;;5127366;27;20038;-60
2022/04/27 01:56:21;;;;;;;4.47;3.97;;;9.30;66.20;;;;;;5114096;27;20034;-60
2022/04/27 01:58:47;;;;;;;5.60;3.90;;;9.30;66.20;;;;;;5117513;27;20082;-59
2022/04/27 02:01:13;;;;;;;6.57;4.20;;;9.30;66.40;;;;;;5124986;27;20534;-59
2022/04/27 02:03:39;;;;;;;6.90;4.00;;;9.30;66.60;;;;;;5122923;27;20082;-58
2022/04/27 02:06:06;;;;;;;5.85;4.00;;;9.30;66.70;;;;;;5121472;27;20044;-60
2022/04/27 02:08:32;;;;;;;5.63;4.35;;;9.30;66.80;;;;;;5123316;27;20030;-58
2022/04/27 02:10:57;;;;;;;4.57;4.13;;;9.30;66.80;;;;;;5125093;27;20032;-60
2022/04/27 02:13:25;;;;;;;7.40;4.30;;;9.30;66.80;;;;;;5128030;27;20137;-58
2022/04/27 02:15:52;;;;;;;5.25;3.72;;;9.30;66.80;;;;;;5120556;27;20024;-60
2022/04/27 02:18:19;;;;;;;7.45;3.55;;;9.30;66.90;;;;;;5117761;27;20061;-59
2022/04/27 02:20:45;;;;;;;4.68;3.75;;;9.30;66.70;;;;;;5121601;27;20020;-59
2022/04/27 02:23:11;;;;;;;4.95;4.38;;;9.30;66.80;;;;;;5121640;27;20031;-58
2022/04/27 02:25:38;;;;;;;5.72;3.80;;;9.30;66.80;;;;;;5114096;27;20042;-59
2022/04/27 02:28:06;;;;;;;5.57;3.85;;;9.30;66.80;;;;;;5068072;27;20032;-60
2022/04/27 02:30:32;;;;;;;8.18;4.10;;;9.30;66.80;;;;;;5117591;27;20781;-60
2022/04/27 02:32:58;;;;;;;5.43;4.22;;;9.30;66.80;;;;;;5125440;27;20023;-59
2022/04/27 02:35:24;;;;;;;5.43;3.42;;;9.30;66.70;;;;;;5119878;27;20027;-60
2022/04/27 02:37:49;;;;;;;4.35;3.95;;;9.30;66.70;;;;;;5109822;27;20032;-58
2022/04/27 02:40:15;;;;;;;4.63;3.58;;;9.30;66.60;;;;;;5119767;27;20039;-60
2022/04/27 02:42:41;;;;;;;6.70;3.70;;;9.30;66.50;;;;;;5117514;27;20035;-59
2022/04/27 02:45:07;;;;;;;4.47;3.40;;;9.30;66.40;;;;;;5113017;27;20410;-59
2022/04/27 02:47:33;;;;;;;3.90;3.42;;;9.20;66.30;;;;;;5120126;27;20026;-58
2022/04/27 02:52:43;;;;;;;7.15;3.53;;;9.10;66.40;;;;;;5116249;27;20166;-60
2022/04/27 02:55:09;;;;;;;4.03;3.58;;;9.10;66.30;;;;;;5117931;27;20043;-59
2022/04/27 02:57:35;;;;;;;8.02;4.28;;;9.10;66.40;;;;;;5119070;27;20024;-59
2022/04/27 03:00:01;;;;;;;4.40;4.00;;;9.00;66.40;;;;;;5115087;27;20047;-59
2022/04/27 03:02:26;;;;;;;4.53;3.70;;;9.00;66.50;;;;;;5121093;27;20015;-58
2022/04/27 03:04:52;;;;;;;7.47;3.85;;;9.00;66.50;;;;;;5112533;28;20035;-60
2022/04/27 03:07:18;;;;;;;4.32;3.40;;;8.90;66.20;;;;;;5116412;27;20020;-60
2022/04/27 03:09:44;;;;;;;4.00;3.10;;;8.90;66.20;;;;;;5119052;27;20486;-60
2022/04/27 03:12:10;;;;;;;3.65;3.05;;;8.90;66.20;;;;;;5118246;27;20051;-60
2022/04/27 03:14:35;;;;;;;3.97;3.22;;;8.80;66.10;;;;;;5118157;27;20027;-60
2022/04/27 03:17:01;;;;;;;4.00;3.40;;;8.80;66.10;;;;;;5123188;27;20027;-60
2022/04/27 03:19:27;;;;;;;5.43;3.78;;;8.70;66.30;;;;;;5120020;27;20036;-58
2022/04/27 03:21:53;;;;;;;4.72;3.58;;;8.70;66.40;;;;;;5113220;27;20031;-60
2022/04/27 03:24:18;;;;;;;4.85;3.92;;;8.70;66.40;;;;;;5116124;27;20023;-60
2022/04/27 03:26:44;;;;;;;5.35;4.25;;;8.60;66.50;;;;;;5122238;27;20064;-59
2022/04/27 03:29:10;;;;;;;6.90;4.40;;;8.60;66.80;;;;;;5113693;27;20026;-60
2022/04/27 03:31:36;;;;;;;7.75;4.88;;;8.50;66.90;;;;;;5121614;27;20427;-58
2022/04/27 03:34:01;;;;;;;4.82;4.30;;;8.50;67.10;;;;;;5124347;27;20043;-59
2022/04/27 03:36:27;;;;;;;5.95;4.45;;;8.50;67.20;;;;;;5117316;27;20028;-59
2022/04/27 03:38:53;;;;;;;6.22;5.10;;;8.50;67.50;;;;;;5120619;27;20038;-60
2022/04/27 03:41:22;;;;;;;5.88;4.65;;;8.50;67.80;;;;;;5120384;27;20023;-60
2022/04/27 03:43:48;;;;;;;6.60;4.28;;;8.40;67.90;;;;;;5114242;27;20877;-59
2022/04/27 03:46:14;;;;;;;6.03;4.57;;;8.40;68.00;;;;;;5115463;27;20032;-60
2022/04/27 03:48:40;;;;;;;6.40;4.65;;;8.50;68.00;;;;;;5113245;28;20046;-59
2022/04/27 03:51:06;;;;;;;4.68;4.20;;;8.50;68.10;;;;;;5117822;27;20024;-58
2022/04/27 03:53:32;;;;;;;8.40;5.15;;;8.50;68.30;;;;;;5125174;27;20043;-58
2022/04/27 03:55:57;;;;;;;5.00;4.00;;;8.50;68.30;;;;;;5119879;27;20036;-59
2022/04/27 03:58:23;;;;;;;6.28;5.30;;;8.60;68.40;;;;;;5115167;28;20024;-59
2022/04/27 04:00:49;;;;;;;5.10;4.05;;;8.60;68.30;;;;;;5114168;28;20055;-58
2022/04/27 04:03:14;;;;;;;7.97;4.10;;;8.60;68.00;;;;;;5124188;28;20083;-60
2022/04/27 04:05:41;;;;;;;5.28;4.25;;;8.70;68.00;;;;;;5126217;28;20092;-59
2022/04/27 04:08:07;;;;;;;5.93;4.72;;;8.70;68.20;;;;;;5124675;28;20072;-60
2022/04/27 04:10:33;;;;;;;8.27;4.13;;;8.70;68.20;;;;;;5115055;28;20071;-59
2022/04/27 04:12:58;;;;;;;5.05;4.35;;;8.70;68.20;;;;;;5114709;28;20268;-59
2022/04/27 04:15:24;;;;;;;7.30;5.30;;;8.70;68.20;;;;;;5108146;28;20028;-59
2022/04/27 04:17:50;;;;;;;6.32;4.93;;;8.80;68.20;;;;;;5109809;27;20074;-58
2022/04/27 04:20:19;;;;;;;7.43;5.38;;;8.80;68.20;;;;;;5130798;27;20103;-59
2022/04/27 04:22:47;;;;;;;5.63;4.43;;;8.80;68.10;;;;;;5119811;27;20026;-59
2022/04/27 04:30:42;;;;;;;6.03;4.72;;;8.80;67.70;;;;;;5119379;27;20121;-60
2022/04/27 04:33:08;;;;;;;7.00;4.68;;;8.80;67.70;;;;;;5125031;27;20032;-59
2022/04/27 04:35:35;;;;;;;6.20;5.07;;;8.80;67.70;;;;;;5127938;27;20049;-59
2022/04/27 04:38:02;;;;;;;6.45;5.25;;;8.80;67.70;;;;;;5116231;27;20016;-59
2022/04/27 04:40:28;;;;;;;9.95;7.28;;;8.80;67.60;;;;;;5126237;27;20047;-59
2022/04/27 04:42:53;;;;;;;10.13;7.50;;;8.80;67.70;;;;;;5122454;27;20374;-60
2022/04/27 04:45:19;;;;;;;7.32;6.07;;;8.80;67.70;;;;;;5128070;27;20020;-58
2022/04/27 04:47:45;;;;;;;7.70;6.47;;;8.80;68.00;;;;;;5123730;27;20059;-60
2022/04/27 04:50:12;;;;;;;5.40;4.63;;;8.80;68.30;;;;;;5119463;27;20052;-59
2022/04/27 04:52:38;;;;;;;5.22;4.45;;;8.90;68.50;;;;;;5124944;27;20024;-60
2022/04/27 04:55:04;;;;;;;5.68;4.68;;;8.90;68.60;;;;;;5122674;27;20590;-59
2022/04/27 04:57:30;;;;;;;5.15;4.65;;;9.00;68.80;;;;;;5130248;27;20023;-59
2022/04/27 04:59:56;;;;;;;5.65;4.72;;;9.10;68.60;;;;;;5119461;27;20036;-58
2022/04/27 05:02:21;;;;;;;5.40;4.78;;;9.20;68.60;;;;;;5119339;27;20020;-59
2022/04/27 05:04:47;;;;;;;4.88;4.28;;;9.30;68.60;;;;;;5123610;27;20039;-60
2022/04/27 05:07:13;;;;;;;6.35;4.93;;;9.40;68.50;;;;;;5118173;27;20035;-58
2022/04/27 05:09:39;;;;;;;6.38;5.35;;;9.50;68.50;;;;;;5118089;27;20030;-61
2022/04/27 05:12:05;;;;;;;8.13;5.90;;;9.60;68.40;;;;;;5112005;27;20024;-61
2022/04/27 05:14:31;;;;;;;8.90;6.35;;;9.70;68.20;;;;;;5120201;27;20077;-59
2022/04/27 05:16:56;;;;;;;7.25;5.90;;;9.80;68.10;;;;;;5122239;27;20661;-60
2022/04/27 05:19:23;;;;;;;7.72;6.40;;;9.80;68.00;;;;;;5121154;27;20028;-60
2022/04/27 05:21:49;;;;;;;7.22;6.22;;;9.90;68.00;;;;;;5113225;27;20023;-60
2022/04/27 05:24:15;;;;;;;7.82;6.25;;;10.10;68.10;;;;;;5111532;27;20031;-60
2022/04/27 05:26:42;;;;;;;8.50;6.13;;;10.20;68.10;;;;;;5117299;27;20030;-61
2022/04/27 05:31:55;;;;;;;6.90;6.05;;;10.50;67.80;;;;;;5127810;27;20421;-61
2022/04/27 05:34:22;;;;;;;10.20;6.65;;;10.70;67.50;;;;;;5127958;27;20043;-59
2022/04/27 05:36:48;;;;;;;8.65;6.47;;;10.80;67.30;;;;;;5121861;27;20023;-61
2022/04/27 05:39:14;;;;;;;11.63;6.68;;;10.90;67.00;;;;;;5118986;27;20017;-59
2022/04/27 05:41:41;;;;;;;18.35;7.40;;;11.00;66.70;;;;;;5123961;27;20027;-60
2022/04/27 05:44:09;;;;;;;8.70;6.80;;;11.00;66.50;;;;;;5118269;27;20023;-59
2022/04/27 05:46:41;;;;;;;9.50;7.43;;;11.10;66.40;;;;;;5127722;27;20076;-59
2022/04/27 05:49:07;;;;;;;9.48;7.40;;;11.10;66.40;;;;;;5112736;27;20101;-60
2022/04/27 05:51:34;;;;;;;11.32;8.05;;;11.10;66.30;;;;;;5126501;27;20032;-59
2022/04/27 05:54:00;;;;;;;8.23;6.85;;;11.10;66.40;;;;;;5119522;27;20125;-61
2022/04/27 05:56:26;;;;;;;8.85;7.18;;;11.20;66.50;;;;;;5110738;27;20032;-60
2022/04/27 05:58:52;;;;;;;11.23;6.30;;;11.20;66.50;;;;;;5120732;27;20024;-60
2022/04/27 06:01:18;;;;;;;10.15;6.82;;;11.20;66.50;;;;;;5124445;27;20550;-60
2022/04/27 06:03:44;;;;;;;9.80;7.20;;;11.30;66.50;;;;;;5126389;27;20020;-62
2022/04/27 06:06:10;;;;;;;7.40;6.45;;;11.30;66.50;;;;;;5124922;27;20918;-61
2022/04/27 06:08:36;;;;;;;9.07;7.22;;;11.30;66.50;;;;;;5112620;27;20050;-60
2022/04/27 06:11:02;;;;;;;8.55;7.18;;;11.40;66.40;;;;;;5118789;27;20063;-59
2022/04/27 06:13:29;;;;;;;10.95;7.68;;;11.40;66.40;;;;;;5120368;28;20080;-61
2022/04/27 06:15:54;;;;;;;7.95;7.10;;;11.50;66.60;;;;;;5112476;27;20635;-60
2022/04/27 06:18:20;;;;;;;9.05;7.35;;;11.50;66.30;;;;;;5108936;27;20072;-59
2022/04/27 06:20:46;;;;;;;9.95;7.85;;;11.50;66.10;;;;;;5119671;27;20023;-59
2022/04/27 06:23:13;;;;;;;12.20;9.10;;;11.60;66.10;;;;;;5115492;27;20054;-60
2022/04/27 06:25:40;;;;;;;11.77;8.85;;;11.60;66.00;;;;;;5122417;27;20023;-60
2022/04/27 06:28:07;;;;;;;11.73;9.40;;;11.60;66.00;;;;;;5122138;27;20040;-59
2022/04/27 06:30:35;;;;;;;10.50;8.38;;;11.60;66.00;;;;;;5122634;27;20035;-60
2022/04/27 06:33:01;;;;;;;10.27;8.05;;;11.60;65.80;;;;;;5113772;27;20016;-61
2022/04/27 06:35:27;;;;;;;11.77;8.75;;;11.60;65.90;;;;;;5119287;27;20079;-60
2022/04/27 06:37:53;;;;;;;12.48;8.85;;;11.60;66.10;;;;;;5121572;27;20024;-59
2022/04/27 06:40:19;;;;;;;12.82;9.27;;;11.60;66.30;;;;;;5127387;27;20051;-59
2022/04/27 06:42:45;;;;;;;12.95;8.82;;;11.60;66.40;;;;;;5132292;27;20023;-59
2022/04/27 06:45:11;;;;;;;12.27;9.18;;;11.70;66.40;;;;;;5119783;27;20114;-60
2022/04/27 06:47:37;;;;;;;17.13;9.95;;;11.80;66.80;;;;;;5110288;27;20092;-60
2022/04/27 06:50:02;;;;;;;14.00;10.07;;;11.90;66.90;;;;;;5105667;27;20055;-61
2022/04/27 06:52:28;;;;;;;13.48;9.57;;;11.90;66.70;;;;;;5122496;27;20024;-61
2022/04/27 06:54:54;;;;;;;14.38;10.07;;;12.10;66.50;;;;;;5113715;27;20039;-61
2022/04/27 06:57:19;;;;;;;14.32;9.75;;;12.10;66.20;;;;;;5107951;28;20028;-60
2022/04/27 06:59:45;;;;;;;12.35;9.23;;;12.20;65.90;;;;;;5126134;27;20491;-60
2022/04/27 07:02:13;;;;;;;13.82;9.85;;;12.20;65.80;;;;;;5116539;27;20687;-59
2022/04/27 07:04:48;;;;;;;15.35;9.05;;;12.20;65.60;;;;;;5115637;27;20470;-60
2022/04/27 07:07:14;;;;;;;11.77;8.63;;;12.30;65.50;;;;;;5120217;27;20110;-60
2022/04/27 07:09:40;;;;;;;11.32;8.43;;;12.30;65.40;;;;;;5111159;28;20043;-59
2022/04/27 07:12:06;;;;;;;11.77;8.77;;;12.30;65.20;;;;;;5110257;27;20028;-59
2022/04/27 07:14:32;;;;;;;11.52;8.25;;;12.30;64.90;;;;;;5125427;27;20493;-60
2022/04/27 07:16:57;;;;;;;11.93;8.20;;;12.30;64.80;;;;;;5118369;27;20034;-60
2022/04/27 07:19:23;;;;;;;11.38;8.20;;;12.30;65.10;;;;;;5119220;27;20454;-60
2022/04/27 07:21:49;;;;;;;12.75;8.70;;;12.30;64.90;;;;;;5113770;27;20075;-61
2022/04/27 07:24:15;;;;;;;11.30;8.05;;;12.30;65.00;;;;;;5127568;27;20025;-59
2022/04/27 07:26:40;;;;;;;11.98;8.13;;;12.30;65.20;;;;;;5117019;27;20047;-59
2022/04/27 07:29:08;;;;;;;9.18;7.15;;;12.30;65.20;;;;;;5121352;27;20028;-60
2022/04/27 07:31:33;;;;;;;13.23;7.95;;;12.30;65.10;;;;;;5117942;27;20561;-61
2022/04/27 07:33:59;;;;;;;10.43;7.07;;;12.30;65.30;;;;;;5119491;27;20082;-59
2022/04/27 07:36:25;;;;;;;11.13;8.32;;;12.30;65.40;;;;;;5119088;27;20084;-61
2022/04/27 07:38:50;;;;;;;10.60;7.57;;;12.30;65.50;;;;;;5115505;27;20035;-59
2022/04/27 07:41:16;;;;;;;9.85;7.03;;;12.40;65.30;;;;;;5117157;27;20030;-60
2022/04/27 07:43:42;;;;;;;9.52;7.32;;;12.40;65.00;;;;;;5121509;27;20034;-60
2022/04/27 07:46:09;;;;;;;11.13;7.32;;;12.40;65.00;;;;;;5104415;28;20020;-59
2022/04/27 07:48:35;;;;;;;9.13;7.00;;;12.50;64.80;;;;;;5115886;27;20715;-59
2022/04/27 07:51:06;;;;;;;9.18;6.70;;;12.50;64.70;;;;;;5113470;28;20036;-60
2022/04/27 07:53:31;;;;;;;10.90;7.60;;;12.60;64.80;;;;;;5120242;28;20066;-59
2022/04/27 07:55:57;;;;;;;10.57;7.60;;;12.60;64.60;;;;;;5121156;28;20031;-60
2022/04/27 07:58:23;;;;;;;9.07;7.10;;;12.60;64.40;;;;;;5132693;28;20023;-59
2022/04/27 08:00:48;;;;;;;10.10;7.25;;;12.60;64.50;;;;;;5121482;28;20122;-61
2022/04/27 08:03:14;;;;;;;11.25;7.20;;;12.60;64.90;;;;;;5115267;28;20035;-60
2022/04/27 08:05:40;;;;;;;9.73;7.03;;;12.70;65.30;;;;;;5120585;28;20486;-61
2022/04/27 08:08:08;;;;;;;8.48;6.90;;;12.70;65.70;;;;;;5114299;28;20522;-61
2022/04/27 08:10:34;;;;;;;11.20;7.25;;;12.70;65.70;;;;;;5116398;28;20088;-60
2022/04/27 08:13:00;;;;;;;8.93;6.90;;;12.80;65.90;;;;;;5126282;28;20083;-60
2022/04/27 08:15:25;;;;;;;9.07;6.68;;;12.80;66.20;;;;;;5121764;28;20051;-60
2022/04/27 08:17:59;;;;;;;8.70;7.00;;;12.90;66.40;;;;;;5123014;28;20032;-59
2022/04/27 08:23:28;;;;;;;10.70;7.10;;;12.90;66.00;;;;;;5110452;28;20047;-60
2022/04/27 08:25:56;;;;;;;7.57;6.65;;;12.90;65.70;;;;;;5113695;28;20024;-60
2022/04/27 08:28:21;;;;;;;8.68;6.60;;;12.90;65.90;;;;;;5118394;27;20049;-60
2022/04/27 08:30:49;;;;;;;8.93;6.68;;;13.00;66.00;;;;;;5123957;28;20024;-60
2022/04/27 08:33:16;;;;;;;7.50;5.95;;;13.00;65.70;;;;;;5118419;28;20023;-60
2022/04/27 08:35:42;;;;;;;7.88;6.13;;;13.00;65.80;;;;;;5114186;28;20032;-59
2022/04/27 08:38:12;;;;;;;8.52;6.50;;;13.00;65.80;;;;;;5106931;28;20076;-60
2022/04/27 08:40:40;;;;;;;8.52;6.93;;;13.00;65.90;;;;;;5114046;28;20028;-61
2022/04/27 08:43:06;;;;;;;8.85;6.40;;;13.10;66.10;;;;;;5118235;28;20024;-60
2022/04/27 08:45:33;;;;;;;7.55;6.28;;;13.10;65.70;;;;;;5117420;28;20028;-59
2022/04/27 08:47:59;;;;;;;7.80;6.55;;;13.20;65.40;;;;;;5121938;28;20015;-59
2022/04/27 08:50:27;;;;;;;11.30;7.18;;;13.20;65.40;;;;;;5115110;28;20547;-59
2022/04/27 08:52:53;;;;;;;10.85;6.72;;;13.20;65.70;;;;;;5116356;28;20039;-59
2022/04/27 08:55:21;;;;;;;8.23;6.35;;;13.20;65.80;;;;;;5115969;28;20028;-60
2022/04/27 08:57:48;;;;;;;8.05;6.63;;;13.30;65.70;;;;;;5126053;28;20019;-59
2022/04/27 09:00:19;;;;;;;8.90;6.63;;;13.30;65.60;;;;;;5116528;28;20528;-60
2022/04/27 09:02:45;;;;;;;8.55;6.88;;;13.30;65.40;;;;;;5110173;28;20077;-59
2022/04/27 09:05:15;;;;;;;8.52;6.75;;;13.30;65.30;;;;;;5122468;28;20031;-59
2022/04/27 09:07:41;;;;;;;10.40;6.45;;;13.30;65.20;;;;;;5122029;27;20016;-59
2022/04/27 09:10:10;;;;;;;7.28;6.13;;;13.30;65.20;;;;;;5122925;27;20118;-60
2022/04/27 09:12:43;;;;;;;8.38;6.55;;;13.30;65.20;;;;;;5122412;27;20058;-60
2022/04/27 09:15:09;;;;;;;8.13;6.00;;;13.30;65.20;;;;;;5126610;27;20126;-60
2022/04/27 09:23:06;;;;;;;8.18;5.10;;;13.40;64.80;;;;;;5112461;28;20043;-61
2022/04/27 09:25:36;;;;;;;7.28;5.53;;;13.40;64.60;;;;;;5118064;28;20079;-60
2022/04/27 09:28:03;;;;;;;6.35;4.93;;;13.30;64.60;;;;;;5127111;27;20102;-61
2022/04/27 09:30:30;;;;;;;6.72;5.20;;;13.30;64.50;;;;;;5126566;27;20020;-60
2022/04/27 09:32:57;;;;;;;6.35;5.15;;;13.30;64.60;;;;;;5114286;27;20032;-60
2022/04/27 09:35:34;;;;;;;5.55;4.97;;;13.30;64.70;;;;;;5110641;28;20118;-60
2022/04/27 09:38:14;;;;;;;6.40;5.35;;;13.30;64.90;;;;;;5114863;27;20078;-60
2022/04/27 09:40:44;;;;;;;6.90;5.40;;;13.40;65.20;;;;;;5130035;27;20027;-61
2022/04/27 09:43:14;;;;;;;5.88;4.57;;;13.40;65.30;;;;;;5120936;27;22040;-59
2022/04/27 09:45:44;;;;;;;6.25;4.78;;;13.50;65.20;;;;;;5123415;27;20032;-60
2022/04/27 09:48:17;;;;;;;4.35;3.95;;;13.60;64.90;;;;;;5121293;27;20028;-59
2022/04/27 09:50:52;;;;;;;4.78;4.28;;;13.70;64.30;;;;;;5123112;27;20035;-60
2022/04/27 09:53:19;;;;;;;5.25;4.00;;;13.90;64.80;;;;;;5117578;27;20028;-61
2022/04/27 09:55:51;;;;;;;4.78;4.05;;;14.10;65.50;;;;;;5129590;27;20035;-60
2022/04/27 09:58:19;;;;;;;4.28;3.88;;;14.30;65.10;;;;;;5122482;27;20031;-59
2022/04/27 10:00:45;;;;;;;6.93;4.57;;;14.60;65.10;;;;;;5136273;27;20054;-61
2022/04/27 10:03:15;;;;;;;4.68;3.92;;;14.80;64.30;;;;;;5125999;27;20083;-60
2022/04/27 10:05:41;;;;;;;4.93;4.15;;;15.00;63.90;;;;;;5108285;27;20024;-60
2022/04/27 10:08:09;;;;;;;4.93;3.97;;;15.20;62.80;;;;;;5118589;27;20038;-59
2022/04/27 10:10:39;;;;;;;4.75;4.25;;;15.30;61.70;;;;;;5114157;27;20030;-60
2022/04/27 10:13:08;;;;;;;4.07;3.45;;;15.30;61.20;;;;;;5119974;27;20031;-59
2022/04/27 10:15:34;;;;;;;4.15;3.65;;;15.40;60.90;;;;;;5121564;28;20032;-61
2022/04/27 10:18:00;;;;;;;4.70;3.40;;;15.40;60.90;;;;;;5121677;27;20027;-61
2022/04/27 10:20:31;;;;;;;3.53;3.13;;;15.40;60.70;;;;;;5121398;28;20467;-61
2022/04/27 10:23:15;;;;;;;3.42;3.13;;;15.30;60.00;;;;;;5119636;28;20051;-59
2022/04/27 10:25:41;;;;;;;3.67;3.33;;;15.30;60.50;;;;;;5123252;27;20083;-60
2022/04/27 10:28:20;;;;;;;3.60;3.03;;;15.30;60.10;;;;;;5127452;27;20115;-59
2022/04/27 10:30:45;;;;;;;3.70;3.35;;;15.30;59.20;;;;;;5124296;27;20026;-60
2022/04/27 10:33:11;;;;;;;4.57;3.33;;;15.20;59.10;;;;;;5118905;28;20048;-60
2022/04/27 10:35:37;;;;;;;4.38;3.55;;;15.10;59.30;;;;;;5126528;27;20027;-59
2022/04/27 10:38:05;;;;;;;3.97;3.10;;;15.00;59.50;;;;;;5123547;27;20031;-59
2022/04/27 10:40:37;;;;;;;4.20;3.70;;;15.00;59.90;;;;;;5129578;27;20106;-60
2022/04/27 10:43:06;;;;;;;3.55;3.13;;;14.90;59.50;;;;;;5126949;27;20019;-61
2022/04/27 10:45:33;;;;;;;3.97;3.30;;;14.90;59.40;;;;;;5110153;27;20776;-59
2022/04/27 10:47:59;;;;;;;3.83;3.35;;;14.80;59.60;;;;;;5108457;27;20028;-61
2022/04/27 10:50:29;;;;;;;3.90;3.35;;;14.80;59.60;;;;;;5124376;27;20589;-59
2022/04/27 10:52:55;;;;;;;3.38;3.08;;;14.80;59.60;;;;;;5119659;28;20087;-59
2022/04/27 10:55:37;;;;;;;4.15;3.20;;;14.80;59.50;;;;;;5132223;27;20066;-59
2022/04/27 10:58:15;;;;;;;6.90;3.60;;;14.80;59.50;;;;;;5112572;27;20028;-60
2022/04/27 11:01:01;;;;;;;3.20;2.80;;;14.80;59.70;;;;;;5120563;27;20035;-59
2022/04/27 11:03:28;;;;;;;3.30;3.00;;;14.90;59.70;;;;;;5121085;27;20035;-61
2022/04/27 11:05:59;;;;;;;3.15;2.85;;;15.00;60.60;;;;;;5119345;27;20161;-60
2022/04/27 11:08:57;;;;;;;3.83;2.50;;;15.10;60.60;;;;;;5125865;27;20030;-60
2022/04/27 11:11:25;;;;;;;2.40;2.20;;;15.20;59.00;;;;;;5096939;27;20362;-59
2022/04/27 11:13:51;;;;;;;2.50;2.30;;;15.30;59.60;;;;;;5115894;27;20028;-59
2022/04/27 11:16:18;;;;;;;2.60;2.40;;;15.50;58.90;;;;;;5125946;27;20016;-61
2022/04/27 11:18:51;;;;;;;2.05;1.92;;;15.50;58.50;;;;;;5117586;27;20024;-60
2022/04/27 11:21:21;;;;;;;2.40;2.10;;;15.60;58.00;;;;;;5125025;27;20054;-61
2022/04/27 11:23:47;;;;;;;2.10;1.90;;;15.70;58.70;;;;;;5127036;27;20043;-61
2022/04/27 11:26:16;;;;;;;2.22;2.03;;;15.80;59.00;;;;;;5072279;27;20398;-59
2022/04/27 11:28:44;;;;;;;2.30;2.03;;;16.00;58.60;;;;;;5120366;27;20023;-60
2022/04/27 11:31:11;;;;;;;2.15;1.95;;;16.20;58.40;;;;;;5129050;27;20023;-60
2022/04/27 11:33:40;;;;;;;1.92;1.70;;;16.30;58.40;;;;;;5112441;28;20050;-59
2022/04/27 11:36:07;;;;;;;2.25;2.05;;;16.50;58.60;;;;;;5125163;27;20026;-60
2022/04/27 11:38:35;;;;;;;1.50;1.40;;;16.60;58.50;;;;;;5119443;27;20020;-60
2022/04/27 11:41:02;;;;;;;2.10;1.90;;;16.80;58.10;;;;;;5113466;27;20039;-59
2022/04/27 11:43:29;;;;;;;1.67;1.58;;;17.00;57.10;;;;;;5116798;27;20627;-60
2022/04/27 11:45:58;;;;;;;2.00;1.80;;;17.10;56.90;;;;;;5107743;27;20031;-60
2022/04/27 11:48:31;;;;;;;1.63;1.52;;;17.10;56.40;;;;;;5115804;27;20042;-60
2022/04/27 11:50:59;;;;;;;2.10;1.80;;;17.20;55.80;;;;;;5109082;28;20032;-60
2022/04/27 11:53:26;;;;;;;2.10;1.90;;;17.20;55.40;;;;;;5121981;27;20020;-59
2022/04/27 11:55:52;;;;;;;4.22;2.70;;;17.10;54.80;;;;;;5123574;27;20031;-61
2022/04/27 11:58:22;;;;;;;3.30;2.75;;;17.10;55.00;;;;;;5125004;27;20505;-61
2022/04/27 12:00:51;;;;;;;5.35;2.45;;;17.00;55.00;;;;;;5111771;28;20488;-60
2022/04/27 12:03:18;;;;;;;2.95;2.53;;;16.90;55.00;;;;;;5122507;28;20023;-60
2022/04/27 12:05:50;;;;;;;3.08;2.15;;;16.80;55.30;;;;;;5119712;28;20020;-60
2022/04/27 12:08:21;;;;;;;3.05;2.75;;;16.70;55.50;;;;;;5120808;28;20128;-60
2022/04/27 12:10:49;;;;;;;4.55;3.03;;;16.70;55.50;;;;;;5124261;28;20023;-60
2022/04/27 12:13:18;;;;;;;3.13;2.63;;;16.70;55.70;;;;;;5110330;28;20020;-61
2022/04/27 12:15:48;;;;;;;4.78;3.70;;;16.70;55.80;;;;;;5121983;28;20036;-61
2022/04/27 12:18:18;;;;;;;3.08;2.70;;;16.70;55.70;;;;;;5129850;28;20035;-61
2022/04/27 12:20:46;;;;;;;2.90;2.60;;;16.80;56.30;;;;;;5118285;28;20046;-61
2022/04/27 12:23:12;;;;;;;8.43;3.13;;;16.80;56.40;;;;;;5115721;28;20024;-61
2022/04/27 12:25:46;;;;;;;2.35;2.15;;;17.00;56.60;;;;;;5121106;28;20019;-60
2022/04/27 12:28:17;;;;;;;4.28;2.25;;;17.10;56.60;;;;;;5124657;28;20019;-61
2022/04/27 12:30:57;;;;;;;3.65;2.45;;;17.40;56.60;;;;;;5113714;28;20028;-60
2022/04/27 12:33:29;;;;;;;3.08;2.42;;;17.60;55.80;;;;;;5120847;27;20031;-60
2022/04/27 12:38:58;;;;;;;5.57;2.72;;;18.20;56.30;;;;;;5110912;28;20114;-59
2022/04/27 12:41:47;;;;;;;3.67;2.85;;;18.60;54.10;;;;;;5115628;27;20059;-59
2022/04/27 12:44:21;;;;;;;3.20;2.55;;;18.80;53.30;;;;;;5119698;28;20027;-60
2022/04/27 12:47:00;;;;;;;2.70;2.42;;;18.90;53.10;;;;;;5126750;27;20029;-59
2022/04/27 12:49:37;;;;;;;4.00;2.42;;;19.00;51.90;;;;;;5124094;27;20047;-60
2022/04/27 12:52:23;;;;;;;6.55;2.83;;;18.90;51.50;;;;;;5118851;28;20091;-59
2022/04/27 12:54:52;;;;;;;2.90;2.47;;;18.90;51.30;;;;;;5116597;27;20098;-60
2022/04/27 12:57:18;;;;;;;3.08;2.63;;;18.80;52.10;;;;;;5122713;28;20031;-59
2022/04/27 13:00:02;;;;;;;3.83;2.60;;;18.70;52.20;;;;;;5117470;27;20028;-59
2022/04/27 13:02:28;;;;;;;3.38;2.17;;;18.70;52.50;;;;;;5120449;27;20028;-59
2022/04/27 13:04:54;;;;;;;3.63;1.92;;;18.70;53.20;;;;;;5107986;27;20096;-59
2022/04/27 13:07:20;;;;;;;5.57;2.55;;;18.90;52.60;;;;;;5121407;27;20027;-60
2022/04/27 13:12:35;;;;;;;3.10;2.58;;;19.10;51.90;;;;;;5112884;27;20034;-60
2022/04/27 13:15:02;;;;;;;4.60;2.58;;;19.20;51.40;;;;;;5123288;27;20062;-60
2022/04/27 13:17:28;;;;;;;2.80;2.42;;;19.20;51.20;;;;;;5127943;27;20058;-61
2022/04/27 13:19:53;;;;;;;2.50;2.30;;;19.10;50.70;;;;;;5127906;27;20028;-60